EZY246Y EGKK-EGPH
Flight info
| Callsign | EZY246Y |
|---|---|
| Flight time | 1h 11m |
| Altitude | 36000 |
| Route | LAM L10 BPK UN601 RIBEL DCT INPIP |
| Aircraft | A319/M-SDE2E3FGIJ1RWXYZ/LB1 |
Departure
| Time | 2026-04-25 11:08 |
|---|---|
| Airport | London Gatwick Airport (EGKK) |
Arrival
| Time | 2026-04-25 12:19 |
|---|---|
| Airport | Edinburgh Airport (EGPH) |
| Time | Latitude | Longitude | Altitude | Speed | Heading |
|---|---|---|---|---|---|
| 2026-04-25 10:44 | 51.15488 | -0.16959 | 203 ft | 0 kts | 348° |
| 2026-04-25 10:48 | 51.15487 | -0.16959 | 203 ft | 0 kts | 348° |
| 2026-04-25 10:50 | 51.15488 | -0.16959 | 203 ft | 0 kts | 348° |
| 2026-04-25 10:51 | 51.15487 | -0.16959 | 203 ft | 0 kts | 348° |
| 2026-04-25 10:55 | 51.15471 | -0.16953 | 214 ft | 2 kts | 342° |
| 2026-04-25 10:55 | 51.15455 | -0.16945 | 216 ft | 2 kts | 333° |
| 2026-04-25 10:55 | 51.15442 | -0.16931 | 210 ft | 2 kts | 293° |
| 2026-04-25 10:56 | 51.15439 | -0.16907 | 208 ft | 2 kts | 258° |
| 2026-04-25 10:56 | 51.15440 | -0.16900 | 209 ft | 0 kts | 257° |
| 2026-04-25 10:58 | 51.15438 | -0.16917 | 211 ft | 5 kts | 257° |
| 2026-04-25 10:59 | 51.15429 | -0.16982 | 199 ft | 6 kts | 257° |
| 2026-04-25 10:59 | 51.15419 | -0.17046 | 203 ft | 6 kts | 257° |
| 2026-04-25 10:59 | 51.15409 | -0.17114 | 203 ft | 7 kts | 255° |
| 2026-04-25 10:59 | 51.15390 | -0.17186 | 206 ft | 7 kts | 246° |
| 2026-04-25 11:00 | 51.15374 | -0.17262 | 213 ft | 7 kts | 252° |
| 2026-04-25 11:00 | 51.15356 | -0.17344 | 209 ft | 7 kts | 234° |
| 2026-04-25 11:00 | 51.15311 | -0.17393 | 208 ft | 7 kts | 233° |
| 2026-04-25 11:00 | 51.15297 | -0.17470 | 207 ft | 7 kts | 262° |
| 2026-04-25 11:01 | 51.15289 | -0.17548 | 206 ft | 7 kts | 258° |
| 2026-04-25 11:01 | 51.15278 | -0.17624 | 206 ft | 7 kts | 257° |
| 2026-04-25 11:01 | 51.15267 | -0.17699 | 210 ft | 7 kts | 257° |
| 2026-04-25 11:01 | 51.15256 | -0.17786 | 210 ft | 13 kts | 258° |
| 2026-04-25 11:02 | 51.15230 | -0.17974 | 215 ft | 18 kts | 257° |
| 2026-04-25 11:02 | 51.15202 | -0.18176 | 216 ft | 19 kts | 258° |
| 2026-04-25 11:02 | 51.15174 | -0.18387 | 205 ft | 20 kts | 260° |
| 2026-04-25 11:02 | 51.15149 | -0.18606 | 205 ft | 20 kts | 258° |
| 2026-04-25 11:03 | 51.15116 | -0.18830 | 204 ft | 21 kts | 256° |
| 2026-04-25 11:03 | 51.15086 | -0.19057 | 213 ft | 21 kts | 258° |
| 2026-04-25 11:03 | 51.15056 | -0.19287 | 212 ft | 21 kts | 258° |
| 2026-04-25 11:03 | 51.15024 | -0.19518 | 209 ft | 22 kts | 257° |
| 2026-04-25 11:04 | 51.14990 | -0.19756 | 204 ft | 22 kts | 257° |
| 2026-04-25 11:04 | 51.14958 | -0.19999 | 203 ft | 23 kts | 258° |
| 2026-04-25 11:04 | 51.14923 | -0.20247 | 208 ft | 23 kts | 257° |
| 2026-04-25 11:04 | 51.14899 | -0.20415 | 214 ft | 24 kts | 258° |
| 2026-04-25 11:05 | 51.14852 | -0.20758 | 206 ft | 24 kts | 258° |
| 2026-04-25 11:05 | 51.14817 | -0.21017 | 202 ft | 22 kts | 258° |
| 2026-04-25 11:05 | 51.14783 | -0.21204 | 211 ft | 17 kts | 250° |
| 2026-04-25 11:05 | 51.14755 | -0.21370 | 211 ft | 12 kts | 243° |
| 2026-04-25 11:06 | 51.14683 | -0.21376 | 211 ft | 12 kts | 147° |
| 2026-04-25 11:06 | 51.14608 | -0.21322 | 202 ft | 12 kts | 167° |
| 2026-04-25 11:06 | 51.14541 | -0.21265 | 209 ft | 11 kts | 133° |
| 2026-04-25 11:06 | 51.14519 | -0.21149 | 205 ft | 11 kts | 87° |
| 2026-04-25 11:07 | 51.14533 | -0.21035 | 206 ft | 10 kts | 78° |
| 2026-04-25 11:07 | 51.14555 | -0.20873 | 211 ft | 35 kts | 78° |
| 2026-04-25 11:07 | 51.14665 | -0.20084 | 207 ft | 107 kts | 77° |
| 2026-04-25 11:07 | 51.14869 | -0.18609 | 204 ft | 163 kts | 77° |
| 2026-04-25 11:08 | 51.15096 | -0.16811 | 721 ft | 167 kts | 79° |
| 2026-04-25 11:08 | 51.15320 | -0.14978 | 1409 ft | 171 kts | 76° |
| 2026-04-25 11:08 | 51.15624 | -0.13025 | 1864 ft | 191 kts | 77° |
| 2026-04-25 11:08 | 51.15923 | -0.10938 | 2181 ft | 215 kts | 77° |
| 2026-04-25 11:09 | 51.16264 | -0.08483 | 2650 ft | 239 kts | 77° |
| 2026-04-25 11:09 | 51.16920 | -0.05985 | 3288 ft | 257 kts | 55° |
| 2026-04-25 11:09 | 51.18023 | -0.03701 | 4210 ft | 263 kts | 52° |
| 2026-04-25 11:09 | 51.19176 | -0.01334 | 4787 ft | 270 kts | 52° |
| 2026-04-25 11:10 | 51.20333 | 0.01040 | 4975 ft | 270 kts | 52° |
| 2026-04-25 11:10 | 51.20708 | 0.01811 | 4995 ft | 270 kts | 52° |
| 2026-04-25 11:10 | 51.22615 | 0.05745 | 5018 ft | 270 kts | 52° |
| 2026-04-25 11:10 | 51.23756 | 0.08107 | 5012 ft | 270 kts | 52° |
| 2026-04-25 11:11 | 51.24546 | 0.09841 | 5007 ft | 271 kts | 59° |
| 2026-04-25 11:11 | 51.25262 | 0.12310 | 5015 ft | 271 kts | 76° |
| 2026-04-25 11:11 | 51.25595 | 0.15235 | 5025 ft | 271 kts | 81° |
| 2026-04-25 11:12 | 51.25914 | 0.18190 | 5022 ft | 271 kts | 80° |
| 2026-04-25 11:12 | 51.26243 | 0.21153 | 5032 ft | 271 kts | 80° |
| 2026-04-25 11:12 | 51.26581 | 0.24102 | 5033 ft | 270 kts | 79° |
| 2026-04-25 11:12 | 51.26924 | 0.27057 | 5021 ft | 271 kts | 79° |
| 2026-04-25 11:13 | 51.27271 | 0.30012 | 5033 ft | 271 kts | 79° |
| 2026-04-25 11:13 | 51.27903 | 0.32870 | 5033 ft | 270 kts | 57° |
| 2026-04-25 11:13 | 51.29178 | 0.34975 | 5034 ft | 269 kts | 32° |
| 2026-04-25 11:13 | 51.30910 | 0.36049 | 5030 ft | 268 kts | 7° |
| 2026-04-25 11:14 | 51.32774 | 0.35854 | 5027 ft | 267 kts | 342° |
| 2026-04-25 11:14 | 51.34495 | 0.34781 | 4997 ft | 267 kts | 336° |
| 2026-04-25 11:14 | 51.35649 | 0.34029 | 5010 ft | 267 kts | 337° |
| 2026-04-25 11:14 | 51.37923 | 0.32553 | 5009 ft | 267 kts | 337° |
| 2026-04-25 11:15 | 51.39083 | 0.31800 | 4997 ft | 267 kts | 337° |
| 2026-04-25 11:15 | 51.40808 | 0.30682 | 4993 ft | 267 kts | 337° |
| 2026-04-25 11:15 | 51.43119 | 0.29187 | 5341 ft | 276 kts | 337° |
| 2026-04-25 11:15 | 51.44891 | 0.28038 | 5917 ft | 274 kts | 337° |
| 2026-04-25 11:16 | 51.47827 | 0.26132 | 6004 ft | 271 kts | 337° |
| 2026-04-25 11:16 | 51.49571 | 0.25000 | 6009 ft | 270 kts | 337° |
| 2026-04-25 11:16 | 51.51290 | 0.23883 | 6010 ft | 270 kts | 337° |
| 2026-04-25 11:17 | 51.53057 | 0.22736 | 6007 ft | 270 kts | 337° |
| 2026-04-25 11:17 | 51.54801 | 0.21599 | 6009 ft | 270 kts | 337° |
| 2026-04-25 11:17 | 51.56541 | 0.20464 | 6009 ft | 270 kts | 337° |
| 2026-04-25 11:17 | 51.58271 | 0.19333 | 6005 ft | 270 kts | 337° |
| 2026-04-25 11:18 | 51.59949 | 0.18234 | 6010 ft | 270 kts | 337° |
| 2026-04-25 11:18 | 51.61758 | 0.17049 | 6008 ft | 270 kts | 337° |
| 2026-04-25 11:18 | 51.63468 | 0.15816 | 6005 ft | 270 kts | 329° |
| 2026-04-25 11:18 | 51.64941 | 0.13959 | 6024 ft | 271 kts | 313° |
| 2026-04-25 11:19 | 51.66064 | 0.11474 | 6775 ft | 275 kts | 301° |
| 2026-04-25 11:19 | 51.67088 | 0.08886 | 7793 ft | 275 kts | 303° |
| 2026-04-25 11:19 | 51.68138 | 0.06291 | 8732 ft | 278 kts | 303° |
| 2026-04-25 11:19 | 51.69206 | 0.03669 | 9667 ft | 281 kts | 303° |
| 2026-04-25 11:20 | 51.70289 | 0.00999 | 10395 ft | 293 kts | 303° |
| 2026-04-25 11:20 | 51.71442 | -0.01858 | 10727 ft | 315 kts | 303° |
| 2026-04-25 11:20 | 51.72651 | -0.04866 | 11379 ft | 323 kts | 302° |
| 2026-04-25 11:20 | 51.73893 | -0.07919 | 12157 ft | 328 kts | 305° |
| 2026-04-25 11:21 | 51.75420 | -0.10685 | 12945 ft | 333 kts | 317° |
| 2026-04-25 11:21 | 51.77305 | -0.12900 | 13735 ft | 338 kts | 328° |
| 2026-04-25 11:21 | 51.79343 | -0.14833 | 14453 ft | 342 kts | 328° |
| 2026-04-25 11:21 | 51.81407 | -0.16794 | 15150 ft | 345 kts | 328° |
| 2026-04-25 11:22 | 51.83473 | -0.18761 | 15865 ft | 349 kts | 328° |
| 2026-04-25 11:22 | 51.84875 | -0.20095 | 16332 ft | 351 kts | 328° |
| 2026-04-25 11:22 | 51.87714 | -0.22795 | 17262 ft | 355 kts | 328° |
| 2026-04-25 11:22 | 51.89855 | -0.24832 | 17944 ft | 359 kts | 328° |
| 2026-04-25 11:23 | 51.92012 | -0.26894 | 18611 ft | 362 kts | 328° |
| 2026-04-25 11:23 | 51.94189 | -0.28982 | 19190 ft | 366 kts | 328° |
| 2026-04-25 11:23 | 51.96386 | -0.31089 | 19760 ft | 369 kts | 327° |
| 2026-04-25 11:23 | 51.98605 | -0.33215 | 20343 ft | 372 kts | 327° |
| 2026-04-25 11:24 | 52.00846 | -0.35368 | 20921 ft | 376 kts | 327° |
| 2026-04-25 11:24 | 52.03110 | -0.37549 | 21502 ft | 379 kts | 327° |
| 2026-04-25 11:24 | 52.05374 | -0.39738 | 22045 ft | 383 kts | 327° |
| 2026-04-25 11:24 | 52.07684 | -0.41975 | 22622 ft | 386 kts | 327° |
| 2026-04-25 11:25 | 52.10006 | -0.44223 | 23178 ft | 390 kts | 327° |
| 2026-04-25 11:25 | 52.12339 | -0.46479 | 23731 ft | 393 kts | 327° |
| 2026-04-25 11:25 | 52.14705 | -0.48769 | 24178 ft | 397 kts | 327° |
| 2026-04-25 11:25 | 52.17086 | -0.51074 | 24644 ft | 400 kts | 327° |
| 2026-04-25 11:26 | 52.19486 | -0.53399 | 25104 ft | 402 kts | 327° |
| 2026-04-25 11:26 | 52.21906 | -0.55742 | 25552 ft | 405 kts | 327° |
| 2026-04-25 11:26 | 52.24329 | -0.58092 | 25998 ft | 407 kts | 327° |
| 2026-04-25 11:26 | 52.26771 | -0.60469 | 26432 ft | 410 kts | 327° |
| 2026-04-25 11:27 | 52.29223 | -0.62861 | 26873 ft | 412 kts | 327° |
| 2026-04-25 11:27 | 52.31692 | -0.65276 | 27286 ft | 415 kts | 327° |
| 2026-04-25 11:27 | 52.34175 | -0.67710 | 27708 ft | 418 kts | 327° |
| 2026-04-25 11:27 | 52.35826 | -0.69330 | 27985 ft | 419 kts | 327° |
| 2026-04-25 11:28 | 52.39189 | -0.72631 | 28542 ft | 423 kts | 327° |
| 2026-04-25 11:28 | 52.41723 | -0.75121 | 28948 ft | 425 kts | 327° |
| 2026-04-25 11:28 | 52.44232 | -0.77585 | 29343 ft | 428 kts | 327° |
| 2026-04-25 11:28 | 52.46798 | -0.80105 | 29743 ft | 431 kts | 327° |
| 2026-04-25 11:29 | 52.49372 | -0.82639 | 30135 ft | 433 kts | 327° |
| 2026-04-25 11:29 | 52.51964 | -0.85197 | 30475 ft | 436 kts | 326° |
| 2026-04-25 11:29 | 52.54562 | -0.87772 | 30796 ft | 438 kts | 326° |
| 2026-04-25 11:29 | 52.57179 | -0.90371 | 31111 ft | 440 kts | 326° |
| 2026-04-25 11:30 | 52.59808 | -0.92982 | 31422 ft | 442 kts | 326° |
| 2026-04-25 11:30 | 52.62442 | -0.95595 | 31757 ft | 443 kts | 326° |
| 2026-04-25 11:30 | 52.65073 | -0.98208 | 32172 ft | 443 kts | 326° |
| 2026-04-25 11:30 | 52.67722 | -1.00841 | 32626 ft | 441 kts | 326° |
| 2026-04-25 11:31 | 52.70344 | -1.03451 | 33077 ft | 440 kts | 326° |
| 2026-04-25 11:31 | 52.72962 | -1.06061 | 33535 ft | 439 kts | 326° |
| 2026-04-25 11:31 | 52.75551 | -1.08650 | 34024 ft | 437 kts | 326° |
| 2026-04-25 11:31 | 52.78147 | -1.11252 | 34453 ft | 436 kts | 326° |
| 2026-04-25 11:32 | 52.80750 | -1.13867 | 34836 ft | 435 kts | 326° |
| 2026-04-25 11:32 | 52.83331 | -1.16465 | 35188 ft | 434 kts | 326° |
| 2026-04-25 11:32 | 52.85911 | -1.19061 | 35533 ft | 434 kts | 326° |
| 2026-04-25 11:32 | 52.88481 | -1.21647 | 35857 ft | 433 kts | 326° |
| 2026-04-25 11:33 | 52.91059 | -1.24250 | 35982 ft | 432 kts | 326° |
| 2026-04-25 11:33 | 52.93613 | -1.26828 | 36010 ft | 427 kts | 326° |
| 2026-04-25 11:33 | 52.98663 | -1.31933 | 36002 ft | 424 kts | 326° |
| 2026-04-25 11:34 | 53.03690 | -1.37030 | 35994 ft | 424 kts | 326° |
| 2026-04-25 11:34 | 53.08719 | -1.42155 | 35985 ft | 424 kts | 326° |
| 2026-04-25 11:35 | 53.13732 | -1.47286 | 35975 ft | 424 kts | 326° |
| 2026-04-25 11:35 | 53.17044 | -1.50671 | 35965 ft | 424 kts | 326° |
| 2026-04-25 11:36 | 53.22067 | -1.55816 | 36150 ft | 423 kts | 326° |
| 2026-04-25 11:36 | 53.24058 | -1.57861 | 36200 ft | 425 kts | 326° |
| 2026-04-25 11:37 | 53.27658 | -1.61570 | 36210 ft | 425 kts | 326° |
| 2026-04-25 11:37 | 53.32695 | -1.66769 | 36216 ft | 425 kts | 326° |
| 2026-04-25 11:38 | 53.37095 | -1.71310 | 36211 ft | 424 kts | 326° |
| 2026-04-25 11:38 | 53.38157 | -1.72409 | 36211 ft | 424 kts | 326° |
| 2026-04-25 11:39 | 53.43168 | -1.77607 | 36209 ft | 424 kts | 326° |
| 2026-04-25 11:39 | 53.48184 | -1.82826 | 36206 ft | 423 kts | 326° |
| 2026-04-25 11:40 | 53.53178 | -1.88022 | 36204 ft | 423 kts | 326° |
| 2026-04-25 11:40 | 53.58015 | -1.93078 | 36203 ft | 423 kts | 326° |
| 2026-04-25 11:41 | 53.61499 | -1.96728 | 36204 ft | 423 kts | 326° |
| 2026-04-25 11:42 | 53.66493 | -2.01986 | 36207 ft | 423 kts | 326° |
| 2026-04-25 11:42 | 53.71471 | -2.07244 | 36204 ft | 423 kts | 326° |
| 2026-04-25 11:43 | 53.74792 | -2.10540 | 36200 ft | 425 kts | 332° |
| 2026-04-25 11:43 | 53.80268 | -2.14347 | 36194 ft | 426 kts | 336° |
| 2026-04-25 11:44 | 53.85778 | -2.18094 | 36185 ft | 427 kts | 336° |
| 2026-04-25 11:44 | 53.91297 | -2.21864 | 36195 ft | 427 kts | 336° |
| 2026-04-25 11:45 | 53.96808 | -2.25653 | 36201 ft | 428 kts | 336° |
| 2026-04-25 11:45 | 54.02333 | -2.29456 | 36198 ft | 428 kts | 336° |
| 2026-04-25 11:46 | 54.07859 | -2.33274 | 36204 ft | 429 kts | 336° |
| 2026-04-25 11:46 | 54.13382 | -2.37106 | 36202 ft | 429 kts | 336° |
| 2026-04-25 11:47 | 54.18907 | -2.40935 | 36196 ft | 429 kts | 336° |
| 2026-04-25 11:47 | 54.24436 | -2.44775 | 36199 ft | 429 kts | 336° |
| 2026-04-25 11:48 | 54.29958 | -2.48625 | 36208 ft | 429 kts | 336° |
| 2026-04-25 11:48 | 54.35486 | -2.52495 | 36177 ft | 431 kts | 336° |
| 2026-04-25 11:49 | 54.41033 | -2.56397 | 36174 ft | 433 kts | 336° |
| 2026-04-25 11:49 | 54.46645 | -2.60359 | 36178 ft | 435 kts | 336° |
| 2026-04-25 11:50 | 54.52253 | -2.64327 | 36189 ft | 437 kts | 336° |
| 2026-04-25 11:50 | 54.57871 | -2.68303 | 36193 ft | 437 kts | 336° |
| 2026-04-25 11:51 | 54.63515 | -2.72303 | 36191 ft | 439 kts | 336° |
| 2026-04-25 11:51 | 54.69135 | -2.76311 | 36190 ft | 440 kts | 336° |
| 2026-04-25 11:52 | 54.74765 | -2.80348 | 36199 ft | 441 kts | 336° |
| 2026-04-25 11:52 | 54.80473 | -2.84441 | 36205 ft | 441 kts | 336° |
| 2026-04-25 11:53 | 54.86107 | -2.88498 | 36206 ft | 442 kts | 336° |
| 2026-04-25 11:53 | 54.88955 | -2.90551 | 35863 ft | 442 kts | 336° |
| 2026-04-25 11:53 | 54.91823 | -2.92621 | 34532 ft | 450 kts | 336° |
| 2026-04-25 11:54 | 54.94705 | -2.94704 | 33546 ft | 447 kts | 336° |
| 2026-04-25 11:54 | 54.97557 | -2.96767 | 32633 ft | 441 kts | 336° |
| 2026-04-25 11:54 | 55.03146 | -3.00823 | 30964 ft | 430 kts | 336° |
| 2026-04-25 11:55 | 55.05883 | -3.02816 | 30123 ft | 425 kts | 337° |
| 2026-04-25 11:55 | 55.08595 | -3.04798 | 29201 ft | 420 kts | 337° |
| 2026-04-25 11:55 | 55.11274 | -3.06758 | 28335 ft | 414 kts | 337° |
| 2026-04-25 11:55 | 55.13906 | -3.08678 | 27506 ft | 409 kts | 337° |
| 2026-04-25 11:56 | 55.16512 | -3.10583 | 26713 ft | 403 kts | 337° |
| 2026-04-25 11:56 | 55.19088 | -3.12469 | 25949 ft | 399 kts | 337° |
| 2026-04-25 11:56 | 55.21629 | -3.14330 | 25217 ft | 394 kts | 337° |
| 2026-04-25 11:56 | 55.23296 | -3.15554 | 24762 ft | 391 kts | 337° |
| 2026-04-25 11:57 | 55.25794 | -3.17392 | 24140 ft | 384 kts | 337° |
| 2026-04-25 11:57 | 55.28253 | -3.19149 | 23390 ft | 379 kts | 342° |
| 2026-04-25 11:57 | 55.30815 | -3.20046 | 22661 ft | 373 kts | 357° |
| 2026-04-25 11:57 | 55.33359 | -3.19859 | 22265 ft | 359 kts | 5° |
| 2026-04-25 11:58 | 55.35812 | -3.19485 | 21664 ft | 352 kts | 5° |
| 2026-04-25 11:58 | 55.38247 | -3.19113 | 20985 ft | 348 kts | 4° |
| 2026-04-25 11:58 | 55.40648 | -3.18743 | 20326 ft | 345 kts | 4° |
| 2026-04-25 11:58 | 55.43029 | -3.18375 | 19685 ft | 342 kts | 3° |
| 2026-04-25 11:59 | 55.45380 | -3.18009 | 19057 ft | 340 kts | 4° |
| 2026-04-25 11:59 | 55.47733 | -3.17640 | 18438 ft | 338 kts | 4° |
| 2026-04-25 11:59 | 55.50068 | -3.17270 | 17825 ft | 333 kts | 3° |
| 2026-04-25 12:00 | 55.54615 | -3.16551 | 16630 ft | 323 kts | 3° |
| 2026-04-25 12:00 | 55.56835 | -3.16203 | 16046 ft | 320 kts | 3° |
| 2026-04-25 12:00 | 55.61215 | -3.15514 | 14947 ft | 311 kts | 3° |
| 2026-04-25 12:01 | 55.63356 | -3.15175 | 14425 ft | 308 kts | 3° |
| 2026-04-25 12:01 | 55.65465 | -3.14840 | 14107 ft | 297 kts | 3° |
| 2026-04-25 12:01 | 55.67474 | -3.14518 | 13846 ft | 284 kts | 3° |
| 2026-04-25 12:01 | 55.69406 | -3.14209 | 13580 ft | 273 kts | 3° |
| 2026-04-25 12:02 | 55.72996 | -3.13230 | 13054 ft | 254 kts | 23° |
| 2026-04-25 12:02 | 55.74399 | -3.11358 | 12794 ft | 255 kts | 49° |
| 2026-04-25 12:02 | 55.75212 | -3.08565 | 12436 ft | 258 kts | 75° |
| 2026-04-25 12:03 | 55.75227 | -3.05390 | 11950 ft | 260 kts | 104° |
| 2026-04-25 12:03 | 55.74442 | -3.02540 | 11463 ft | 259 kts | 132° |
| 2026-04-25 12:03 | 55.73045 | -3.00615 | 11011 ft | 254 kts | 159° |
| 2026-04-25 12:03 | 55.71348 | -2.99954 | 10554 ft | 247 kts | 184° |
| 2026-04-25 12:04 | 55.69660 | -3.00091 | 10071 ft | 247 kts | 187° |
| 2026-04-25 12:04 | 55.67931 | -3.00337 | 9573 ft | 245 kts | 188° |
| 2026-04-25 12:04 | 55.66246 | -3.00608 | 9124 ft | 241 kts | 188° |
| 2026-04-25 12:04 | 55.64579 | -3.00878 | 8675 ft | 239 kts | 188° |
| 2026-04-25 12:05 | 55.62955 | -3.01320 | 8212 ft | 233 kts | 202° |
| 2026-04-25 12:05 | 55.61579 | -3.02701 | 7765 ft | 225 kts | 225° |
| 2026-04-25 12:05 | 55.60642 | -3.04827 | 7248 ft | 221 kts | 248° |
| 2026-04-25 12:05 | 55.60327 | -3.07548 | 6967 ft | 235 kts | 275° |
| 2026-04-25 12:06 | 55.60830 | -3.10321 | 6850 ft | 240 kts | 298° |
| 2026-04-25 12:06 | 55.61649 | -3.12909 | 6714 ft | 241 kts | 299° |
| 2026-04-25 12:06 | 55.62471 | -3.15502 | 6584 ft | 241 kts | 299° |
| 2026-04-25 12:06 | 55.63290 | -3.18083 | 6459 ft | 242 kts | 299° |
| 2026-04-25 12:07 | 55.64112 | -3.20679 | 6330 ft | 241 kts | 299° |
| 2026-04-25 12:07 | 55.64924 | -3.23255 | 6202 ft | 241 kts | 299° |
| 2026-04-25 12:07 | 55.65739 | -3.25842 | 6069 ft | 240 kts | 298° |
| 2026-04-25 12:07 | 55.66551 | -3.28424 | 5942 ft | 240 kts | 298° |
| 2026-04-25 12:08 | 55.67364 | -3.31017 | 5805 ft | 240 kts | 298° |
| 2026-04-25 12:08 | 55.68169 | -3.33589 | 5685 ft | 238 kts | 298° |
| 2026-04-25 12:08 | 55.68973 | -3.36160 | 5533 ft | 239 kts | 298° |
| 2026-04-25 12:08 | 55.69780 | -3.38744 | 5411 ft | 239 kts | 297° |
| 2026-04-25 12:09 | 55.70580 | -3.41307 | 5286 ft | 237 kts | 297° |
| 2026-04-25 12:09 | 55.71361 | -3.43809 | 5155 ft | 227 kts | 298° |
| 2026-04-25 12:09 | 55.72113 | -3.46220 | 5056 ft | 220 kts | 297° |
| 2026-04-25 12:09 | 55.72848 | -3.48576 | 4978 ft | 215 kts | 297° |
| 2026-04-25 12:10 | 55.73543 | -3.50803 | 5018 ft | 200 kts | 298° |
| 2026-04-25 12:10 | 55.74213 | -3.52948 | 5001 ft | 195 kts | 298° |
| 2026-04-25 12:10 | 55.74861 | -3.55033 | 4989 ft | 193 kts | 298° |
| 2026-04-25 12:10 | 55.75502 | -3.57097 | 4984 ft | 188 kts | 297° |
| 2026-04-25 12:11 | 55.76127 | -3.59119 | 4990 ft | 187 kts | 297° |
| 2026-04-25 12:11 | 55.76748 | -3.61133 | 4986 ft | 186 kts | 297° |
| 2026-04-25 12:11 | 55.77368 | -3.63141 | 4972 ft | 184 kts | 297° |
| 2026-04-25 12:11 | 55.77977 | -3.65116 | 4640 ft | 182 kts | 297° |
| 2026-04-25 12:12 | 55.78588 | -3.67104 | 4199 ft | 185 kts | 297° |
| 2026-04-25 12:12 | 55.78996 | -3.68426 | 3999 ft | 186 kts | 298° |
| 2026-04-25 12:12 | 55.79836 | -3.71099 | 3983 ft | 183 kts | 301° |
| 2026-04-25 12:12 | 55.80800 | -3.72535 | 3989 ft | 185 kts | 334° |
| 2026-04-25 12:13 | 55.82073 | -3.72757 | 3987 ft | 189 kts | 9° |
| 2026-04-25 12:13 | 55.83153 | -3.71705 | 3980 ft | 169 kts | 44° |
| 2026-04-25 12:13 | 55.83774 | -3.70073 | 3989 ft | 149 kts | 58° |
| 2026-04-25 12:13 | 55.84317 | -3.68509 | 3934 ft | 147 kts | 58° |
| 2026-04-25 12:14 | 55.84852 | -3.66963 | 3790 ft | 146 kts | 58° |
| 2026-04-25 12:14 | 55.85379 | -3.65433 | 3624 ft | 144 kts | 58° |
| 2026-04-25 12:14 | 55.85902 | -3.63911 | 3438 ft | 144 kts | 58° |
| 2026-04-25 12:14 | 55.86421 | -3.62398 | 3247 ft | 143 kts | 58° |
| 2026-04-25 12:15 | 55.86935 | -3.60899 | 3047 ft | 141 kts | 59° |
| 2026-04-25 12:15 | 55.87438 | -3.59430 | 2869 ft | 140 kts | 59° |
| 2026-04-25 12:15 | 55.87940 | -3.57963 | 2674 ft | 138 kts | 59° |
| 2026-04-25 12:15 | 55.88439 | -3.56507 | 2498 ft | 136 kts | 61° |
| 2026-04-25 12:16 | 55.88925 | -3.55085 | 2308 ft | 133 kts | 60° |
| 2026-04-25 12:16 | 55.89402 | -3.53690 | 2135 ft | 132 kts | 60° |
| 2026-04-25 12:16 | 55.89883 | -3.52280 | 1946 ft | 129 kts | 60° |
| 2026-04-25 12:16 | 55.90344 | -3.50932 | 1775 ft | 127 kts | 61° |
| 2026-04-25 12:17 | 55.90796 | -3.49605 | 1600 ft | 125 kts | 62° |
| 2026-04-25 12:17 | 55.91250 | -3.48265 | 1385 ft | 125 kts | 61° |
| 2026-04-25 12:17 | 55.91697 | -3.46969 | 1179 ft | 126 kts | 59° |
| 2026-04-25 12:17 | 55.92159 | -3.45635 | 999 ft | 123 kts | 59° |
| 2026-04-25 12:18 | 55.92608 | -3.44339 | 793 ft | 123 kts | 62° |
| 2026-04-25 12:18 | 55.93027 | -3.43058 | 656 ft | 119 kts | 60° |
| 2026-04-25 12:18 | 55.93455 | -3.41771 | 528 ft | 120 kts | 62° |
| 2026-04-25 12:18 | 55.93889 | -3.40502 | 383 ft | 119 kts | 59° |
| 2026-04-25 12:19 | 55.94608 | -3.38400 | 136 ft | 118 kts | 58° |
| 2026-04-25 12:19 | 55.95018 | -3.37184 | 105 ft | 35 kts | 59° |
| 2026-04-25 12:19 | 55.95091 | -3.36970 | 110 ft | 24 kts | 58° |
| 2026-04-25 12:20 | 55.95179 | -3.36713 | 108 ft | 24 kts | 58° |
| 2026-04-25 12:20 | 55.95256 | -3.36478 | 103 ft | 15 kts | 75° |
| 2026-04-25 12:20 | 55.95193 | -3.36350 | 103 ft | 9 kts | 149° |
| 2026-04-25 12:20 | 55.95187 | -3.36344 | 103 ft | 0 kts | 149° |
| 2026-04-25 12:22 | 55.95184 | -3.36340 | 103 ft | 5 kts | 150° |
| 2026-04-25 12:22 | 55.95122 | -3.36329 | 103 ft | 10 kts | 214° |
| 2026-04-25 12:22 | 55.95077 | -3.36396 | 107 ft | 7 kts | 189° |
| 2026-04-25 12:23 | 55.95030 | -3.36357 | 106 ft | 8 kts | 146° |
| 2026-04-25 12:23 | 55.95008 | -3.36333 | 106 ft | 0 kts | 148° |
| 2026-04-25 12:23 | 55.95008 | -3.36332 | 107 ft | 1 kts | 148° |
| 2026-04-25 12:23 | 55.94991 | -3.36314 | 106 ft | 3 kts | 149° |
| 2026-04-25 12:24 | 55.94973 | -3.36294 | 107 ft | 4 kts | 148° |
| 2026-04-25 12:24 | 55.94962 | -3.36283 | 107 ft | 0 kts | 148° |